Time;durP1;ratioP1;P1;durP2;ratioP2;P2;SDS_P1;SDS_P2;PMS_P1;PMS_P2;Temp;Humidity;BMP_temperature;BMP_pressure;BME280_temperature;BME280_humidity;BME280_pressure;Samples;Min_cycle;Max_cycle;Signal;HPM_P1;HPM_P2
2021/12/21 00:00:53;;;;;;;11.98;7.45;;;2.00;99.90;;;1.87;80.00;102169.09;4900358;29;20182;-64
2021/12/21 00:03:22;;;;;;;13.00;8.27;;;2.00;99.90;;;1.96;79.76;102171.91;4899044;29;20292;-64
2021/12/21 00:05:53;;;;;;;13.40;8.00;;;2.00;99.90;;;1.94;80.05;102165.81;4900086;29;20604;-61
2021/12/21 00:08:23;;;;;;;12.32;6.75;;;2.00;99.90;;;2.01;79.74;102169.75;4900923;29;20270;-63
2021/12/21 00:11:11;;;;;;;7.68;6.60;;;2.00;99.90;;;2.04;79.84;102164.16;4900070;29;20289;-63
2021/12/21 00:13:57;;;;;;;12.43;6.93;;;2.10;99.90;;;1.96;79.73;102158.56;4900052;29;20238;-64
2021/12/21 00:16:46;;;;;;;12.77;7.85;;;2.10;99.90;;;1.89;80.17;102159.97;4900099;29;20182;-64
2021/12/21 00:19:43;;;;;;;12.40;7.70;;;2.00;99.90;;;2.10;79.87;102161.03;4900223;29;20202;-63
2021/12/21 00:22:30;;;;;;;16.85;8.27;;;2.00;99.90;;;1.98;79.62;102159.31;4899887;29;20218;-65
2021/12/21 00:24:58;;;;;;;11.50;7.85;;;2.00;99.90;;;2.02;80.14;102158.13;4898794;29;20659;-65
2021/12/21 00:27:26;;;;;;;20.85;8.40;;;2.00;99.90;;;1.94;80.21;102157.81;4899561;29;20179;-65
2021/12/21 00:29:55;;;;;;;14.50;8.82;;;2.00;99.90;;;1.84;80.29;102162.16;4898186;29;20191;-65
2021/12/21 00:32:24;;;;;;;11.38;8.10;;;1.90;99.90;;;2.14;79.41;102159.84;4899076;29;20273;-64
2021/12/21 00:34:52;;;;;;;12.75;8.00;;;2.10;99.90;;;2.17;79.21;102164.97;4899530;29;20648;-64
2021/12/21 00:37:23;;;;;;;9.75;6.90;;;2.20;99.90;;;2.11;79.06;102168.09;4899812;29;20607;-65
2021/12/21 00:39:51;;;;;;;10.07;7.82;;;2.20;99.90;;;2.05;79.52;102168.56;4899372;29;20182;-65
2021/12/21 00:42:19;;;;;;;15.30;8.25;;;2.10;99.90;;;1.97;79.82;102165.63;4908327;29;20293;-64
2021/12/21 00:44:48;;;;;;;11.98;8.05;;;2.10;99.90;;;1.98;79.59;102153.13;4908577;29;20206;-63
2021/12/21 00:47:17;;;;;;;15.93;7.18;;;2.00;99.90;;;1.99;79.68;102161.00;4906732;29;20280;-65
2021/12/21 00:49:47;;;;;;;11.98;7.43;;;2.10;99.90;;;1.93;79.82;102158.81;4918315;29;20196;-63
2021/12/21 00:52:16;;;;;;;11.27;6.78;;;2.00;99.90;;;1.85;80.32;102155.00;4917763;29;20575;-65
2021/12/21 00:54:47;;;;;;;11.50;7.88;;;2.00;99.90;;;1.95;80.11;102148.00;4928694;23;20240;-70
2021/12/21 00:57:15;;;;;;;11.48;8.07;;;2.00;99.90;;;1.92;80.03;102149.09;4898889;29;20787;-71
2021/12/21 00:59:45;;;;;;;10.10;7.63;;;2.00;99.90;;;1.89;79.91;102141.28;4901080;29;20198;-72
2021/12/21 01:02:14;;;;;;;11.07;6.90;;;2.00;99.90;;;1.83;80.02;102133.78;4914520;29;20189;-72
2021/12/21 01:04:47;;;;;;;11.60;7.22;;;1.90;99.90;;;1.89;80.13;102132.47;4897985;29;20197;-72
2021/12/21 01:07:23;;;;;;;12.98;7.15;;;2.00;99.90;;;1.79;79.92;102142.13;4913144;29;20214;-72
2021/12/21 01:12:49;;;;;;;13.45;7.55;;;1.90;99.90;;;1.77;80.02;102138.72;4890648;29;20230;-71
2021/12/21 01:15:32;;;;;;;9.38;6.10;;;1.90;99.90;;;1.68;80.40;102134.94;4898366;29;20209;-69
2021/12/21 01:18:06;;;;;;;7.95;7.15;;;1.80;99.90;;;1.67;80.51;102134.06;4912627;29;20233;-72
2021/12/21 01:20:43;;;;;;;10.43;6.47;;;1.80;99.90;;;1.62;80.28;102138.91;4896318;29;20205;-73
2021/12/21 01:23:38;;;;;;;17.67;6.72;;;1.70;99.90;;;1.57;80.92;102138.38;4897694;29;20178;-70
2021/12/21 01:26:15;;;;;;;11.05;6.50;;;1.70;99.90;;;1.61;80.49;102141.66;4897610;29;20182;-72
2021/12/21 01:28:51;;;;;;;10.35;6.95;;;1.70;99.90;;;1.65;80.38;102138.66;4897733;29;20240;-72
2021/12/21 01:31:28;;;;;;;10.88;6.20;;;1.70;99.90;;;1.55;80.70;102140.31;4898461;29;20206;-71
2021/12/21 01:34:11;;;;;;;11.90;7.55;;;1.70;99.90;;;1.58;80.62;102149.91;4897697;29;20210;-72
2021/12/21 01:36:47;;;;;;;8.70;7.80;;;1.70;99.90;;;1.38;81.12;102139.84;4896320;29;20560;-72
2021/12/21 01:39:44;;;;;;;12.85;7.55;;;1.60;99.90;;;1.31;81.08;102142.97;4898123;29;20636;-72
2021/12/21 01:42:17;;;;;;;14.85;7.75;;;1.40;99.90;;;1.46;81.34;102145.47;4896864;29;20278;-74
2021/12/21 01:50:15;;;;;;;17.17;9.02;;;1.60;99.90;;;1.56;80.85;102133.16;4914800;29;20741;-72
2021/12/21 01:52:44;;;;;;;13.80;8.77;;;1.60;99.90;;;1.77;81.03;102134.22;4917016;29;20663;-71
2021/12/21 01:55:14;;;;;;;11.52;7.80;;;1.70;99.90;;;1.72;79.94;102133.72;4932800;29;20209;-72
2021/12/21 01:57:45;;;;;;;10.27;7.82;;;1.70;99.90;;;1.73;80.33;102132.75;4918805;29;20222;-72
2021/12/21 02:00:16;;;;;;;10.52;7.35;;;1.70;99.90;;;1.75;79.97;102128.16;4937012;29;20342;-71
2021/12/21 02:02:47;;;;;;;17.08;7.55;;;1.80;99.90;;;1.91;80.31;102135.84;4921387;29;20181;-70
2021/12/21 02:05:44;;;;;;;10.43;7.30;;;1.90;99.90;;;1.83;79.95;102132.91;4923359;29;20329;-71
2021/12/21 02:11:59;;;;;;;12.20;7.25;;;1.90;99.90;;;2.06;79.96;102124.88;4917344;29;20251;-72
2021/12/21 02:15:14;;;;;;;8.57;7.50;;;2.00;99.90;;;2.16;79.48;102131.22;4918455;28;20205;-72
2021/12/21 02:18:49;;;;;;;9.18;7.40;;;2.10;99.90;;;2.13;78.81;102120.75;4919639;29;20216;-71
2021/12/21 02:22:37;;;;;;;12.18;7.68;;;2.10;99.90;;;2.06;79.41;102118.66;4919985;29;20190;-72
2021/12/21 02:29:56;;;;;;;12.25;8.38;;;2.20;99.90;;;2.12;79.20;102118.22;4899786;29;20285;-72
2021/12/21 02:33:25;;;;;;;11.05;7.35;;;2.20;99.90;;;2.08;79.05;102114.91;4914874;29;20221;-72
2021/12/21 02:36:38;;;;;;;11.23;7.38;;;2.10;99.90;;;2.07;79.64;102115.03;4897187;29;20201;-72
2021/12/21 02:39:15;;;;;;;10.38;7.63;;;2.10;99.90;;;2.08;79.23;102117.56;4861689;29;20243;-73
2021/12/21 02:41:46;;;;;;;21.58;11.20;;;2.10;99.90;;;2.13;79.59;102109.25;4876632;29;20195;-71
2021/12/21 02:44:16;;;;;;;14.23;9.88;;;2.10;99.90;;;1.95;79.27;102111.47;4876728;29;20188;-73
2021/12/21 02:46:45;;;;;;;14.32;10.55;;;2.10;99.90;;;2.01;79.60;102116.34;4877181;29;20186;-72
2021/12/21 02:49:15;;;;;;;20.52;9.52;;;2.10;99.90;;;1.92;79.82;102108.19;4863917;29;20659;-70
2021/12/21 02:51:45;;;;;;;12.52;9.60;;;2.00;99.90;;;1.92;79.67;102103.72;4863624;29;20187;-72
2021/12/21 02:54:17;;;;;;;13.02;9.77;;;2.00;99.90;;;2.02;79.51;102096.69;4863652;29;20224;-72
2021/12/21 02:56:48;;;;;;;16.10;10.38;;;2.00;99.90;;;2.12;78.83;102102.19;4865925;29;20223;-72
2021/12/21 02:59:17;;;;;;;16.98;8.98;;;2.10;99.90;;;1.99;79.20;102096.91;4864968;29;20545;-70
2021/12/21 03:01:46;;;;;;;20.23;11.43;;;2.10;99.90;;;2.03;79.24;102105.56;4864857;29;20694;-72
2021/12/21 03:04:15;;;;;;;10.73;9.30;;;2.00;99.90;;;2.00;79.06;102108.44;4866285;29;20210;-72
2021/12/21 03:08:00;;;;;;;16.85;9.98;;;2.00;99.90;;;1.96;79.21;102097.16;4865641;29;20223;-72
2021/12/21 03:14:28;;;;;;;13.65;9.80;;;2.00;99.90;;;1.73;80.45;102092.72;4864138;29;20195;-72
2021/12/21 03:16:56;;;;;;;17.75;9.93;;;1.90;99.90;;;1.75;80.51;102093.44;4863010;29;20202;-74
2021/12/21 03:19:25;;;;;;;15.52;9.75;;;1.90;99.90;;;1.77;80.20;102096.88;4864465;29;20196;-73
2021/12/21 03:21:54;;;;;;;14.70;11.32;;;1.80;99.90;;;1.65;80.26;102092.44;4862903;29;20195;-70
2021/12/21 03:25:06;;;;;;;14.13;11.27;;;1.80;99.90;;;1.67;80.43;102095.84;4862962;29;20260;-71
2021/12/21 03:29:02;;;;;;;17.40;11.45;;;1.80;99.90;;;1.63;80.29;102099.72;4864699;29;20285;-73
2021/12/21 03:32:29;;;;;;;16.80;11.25;;;1.70;99.90;;;1.62;80.46;102098.03;4864826;29;20224;-71
2021/12/21 03:35:18;;;;;;;20.20;12.68;;;1.70;99.90;;;1.69;80.68;102096.59;4862436;29;20204;-73
2021/12/21 03:38:27;;;;;;;21.27;11.57;;;1.70;99.90;;;1.80;81.13;102093.09;4864052;29;20230;-71
2021/12/21 03:42:04;;;;;;;17.17;12.20;;;1.70;99.90;;;1.84;80.20;102092.75;4864377;29;20595;-72
2021/12/21 03:45:35;;;;;;;15.98;11.73;;;1.90;99.90;;;1.61;81.10;102101.66;4852582;29;20231;-70
2021/12/21 03:49:02;;;;;;;18.60;11.63;;;1.80;99.90;;;1.54;80.80;102095.09;4867930;29;20335;-73
2021/12/21 03:52:06;;;;;;;14.18;11.40;;;1.70;99.90;;;1.60;81.01;102089.25;4865460;29;20264;-72
2021/12/21 03:54:38;;;;;;;18.23;11.63;;;1.70;99.90;;;1.50;80.75;102083.75;4869574;29;20206;-72
2021/12/21 03:57:07;;;;;;;16.55;12.38;;;1.60;99.90;;;1.51;81.11;102084.63;4869357;29;20298;-71
2021/12/21 04:00:22;;;;;;;18.63;12.25;;;1.60;99.90;;;1.81;81.65;102084.13;4865645;29;20669;-74
2021/12/21 04:10:51;;;;;;;18.35;11.90;;;1.70;99.90;;;1.34;81.42;102085.03;4865401;29;20233;-72
2021/12/21 04:13:51;;;;;;;18.02;12.35;;;1.50;99.90;;;1.29;81.54;102088.03;4869112;29;20244;-70
2021/12/21 04:16:41;;;;;;;17.83;13.05;;;1.50;99.90;;;1.47;81.80;102086.66;4868423;29;20195;-72
2021/12/21 04:19:12;;;;;;;23.88;14.68;;;1.50;99.90;;;1.44;81.57;102094.06;4870914;29;20199;-70
2021/12/21 04:21:42;;;;;;;20.98;14.88;;;1.50;99.90;;;1.53;81.35;102094.22;4868432;29;20598;-72
2021/12/21 04:24:39;;;;;;;26.13;13.73;;;1.50;99.90;;;1.38;81.43;102099.84;4863312;29;20204;-72
2021/12/21 04:27:45;;;;;;;23.27;13.45;;;1.50;99.90;;;1.47;81.25;102099.16;4867077;29;20220;-72
2021/12/21 04:30:13;;;;;;;21.70;14.02;;;1.50;99.90;;;1.52;81.34;102092.53;4864597;29;20208;-71
2021/12/21 04:32:42;;;;;;;18.80;13.95;;;1.50;99.90;;;1.35;81.44;102100.94;4851118;29;20255;-70
2021/12/21 04:35:15;;;;;;;22.98;14.50;;;1.50;99.90;;;1.42;81.25;102095.97;4865510;29;20224;-72
2021/12/21 04:37:46;;;;;;;24.85;16.38;;;1.40;99.90;;;1.49;81.10;102097.25;4858368;29;20240;-71
2021/12/21 04:40:18;;;;;;;23.67;15.10;;;1.50;99.90;;;1.36;81.47;102097.28;4843732;29;20478;-70
2021/12/21 04:42:47;;;;;;;21.45;14.40;;;1.50;99.90;;;1.28;81.72;102095.19;4871019;29;20283;-73
2021/12/21 04:45:16;;;;;;;20.80;14.13;;;1.40;99.90;;;1.51;81.59;102092.63;4860805;29;20218;-74
2021/12/21 04:47:44;;;;;;;24.38;15.50;;;1.50;99.90;;;1.55;81.21;102091.44;4841626;29;20232;-72
2021/12/21 04:50:14;;;;;;;21.88;14.40;;;1.60;99.90;;;1.33;81.74;102097.53;4840766;29;20299;-72
2021/12/21 04:52:43;;;;;;;25.45;15.27;;;1.50;99.90;;;1.50;81.40;102096.28;4842037;29;20353;-70
2021/12/21 04:55:12;;;;;;;21.33;16.65;;;1.50;99.90;;;1.45;81.17;102101.09;4842577;29;20681;-71
2021/12/21 04:57:41;;;;;;;21.35;14.98;;;1.50;99.90;;;1.27;81.60;102098.81;4844699;29;20211;-71
2021/12/21 05:00:13;;;;;;;24.13;14.98;;;1.50;99.90;;;1.28;81.82;102094.34;4845415;29;20177;-70
2021/12/21 05:02:42;;;;;;;24.73;16.20;;;1.40;99.90;;;1.35;81.58;102100.94;4842039;29;20192;-73
2021/12/21 05:05:11;;;;;;;28.38;17.48;;;1.40;99.90;;;1.37;81.68;102108.81;4841568;29;20193;-70
2021/12/21 05:07:46;;;;;;;25.85;17.10;;;1.50;99.90;;;1.46;81.66;102102.78;4843685;29;20248;-71
2021/12/21 05:10:15;;;;;;;34.85;15.68;;;1.50;99.90;;;1.20;82.04;102100.25;4856946;29;20192;-74
2021/12/21 05:12:44;;;;;;;26.17;18.27;;;1.40;99.90;;;1.38;81.91;102099.84;4855332;29;20326;-72
2021/12/21 05:15:14;;;;;;;25.05;17.60;;;1.40;99.90;;;1.47;81.63;102101.81;4863849;29;20211;-71
2021/12/21 05:17:42;;;;;;;26.98;16.50;;;1.50;99.90;;;1.50;81.53;102104.28;4860940;29;20208;-72
2021/12/21 05:20:12;;;;;;;23.60;14.85;;;1.60;99.90;;;1.50;81.28;102105.09;4860738;29;20270;-71
2021/12/21 05:22:42;;;;;;;30.40;17.70;;;1.60;99.90;;;1.50;80.72;102110.44;4859193;29;20225;-71
2021/12/21 05:25:11;;;;;;;24.73;16.83;;;1.50;99.90;;;1.44;81.24;102100.25;4858898;29;20187;-71
2021/12/21 05:27:40;;;;;;;20.50;14.05;;;1.50;99.90;;;1.36;81.45;102113.28;4859847;29;20215;-73
2021/12/21 05:30:10;;;;;;;27.23;16.48;;;1.50;99.90;;;1.26;81.70;102107.78;4858795;29;20637;-71
2021/12/21 05:32:38;;;;;;;19.77;14.10;;;1.40;99.90;;;1.43;81.29;102098.53;4858809;29;20247;-72
2021/12/21 05:35:09;;;;;;;22.20;14.00;;;1.50;99.90;;;1.43;81.35;102103.03;4846582;29;20785;-71
2021/12/21 05:37:40;;;;;;;26.98;13.55;;;1.50;99.90;;;1.38;81.38;102105.19;4841457;29;20216;-72
2021/12/21 05:40:13;;;;;;;23.00;16.00;;;1.40;99.90;;;1.48;81.57;102100.88;4856025;29;20354;-71
2021/12/21 05:42:44;;;;;;;22.55;14.45;;;1.50;99.90;;;1.47;81.08;102105.34;4842590;29;20252;-70
2021/12/21 05:45:16;;;;;;;35.17;17.70;;;1.60;99.90;;;1.61;81.31;102096.31;4856214;29;20184;-71
2021/12/21 05:47:45;;;;;;;23.25;13.68;;;1.60;99.90;;;1.56;80.86;102103.81;4857900;29;20253;-73
2021/12/21 05:50:19;;;;;;;19.98;13.82;;;1.60;99.90;;;1.61;80.53;102102.50;4858880;29;20199;-71
2021/12/21 05:52:50;;;;;;;26.58;15.27;;;1.60;99.90;;;1.50;80.67;102104.28;4857733;29;20285;-71
2021/12/21 05:59:05;;;;;;;19.05;12.75;;;1.60;99.90;;;1.40;80.53;102112.13;4858516;29;20216;-70
2021/12/21 06:01:35;;;;;;;23.65;15.82;;;1.60;99.90;;;1.39;80.61;102112.22;4860394;29;20657;-71
2021/12/21 06:04:05;;;;;;;18.50;13.85;;;1.50;99.90;;;1.60;80.67;102116.81;4859357;29;20202;-72
2021/12/21 06:06:34;;;;;;;22.02;13.75;;;1.60;99.90;;;1.57;80.37;102114.38;4858122;29;20793;-71
2021/12/21 06:09:07;;;;;;;21.15;12.18;;;1.60;99.90;;;1.67;80.24;102114.53;4859617;29;20231;-73
2021/12/21 06:11:44;;;;;;;24.30;14.98;;;1.70;99.90;;;1.69;79.83;102120.63;4859489;29;20195;-74
2021/12/21 06:14:23;;;;;;;23.27;13.55;;;1.70;99.90;;;1.72;80.02;102115.03;4855303;29;20208;-71
2021/12/21 06:22:57;;;;;;;13.48;10.18;;;1.70;99.90;;;1.60;79.32;102116.81;4844097;29;20207;-70
2021/12/21 06:25:38;;;;;;;18.27;10.23;;;1.70;99.90;;;1.58;78.96;102125.91;4852522;29;20595;-71
2021/12/21 06:28:12;;;;;;;15.75;11.98;;;1.60;99.90;;;1.60;79.38;102121.28;4863309;29;20724;-70
2021/12/21 06:30:42;;;;;;;15.25;10.77;;;1.60;99.90;;;1.39;79.95;102122.88;4863349;29;20213;-71
2021/12/21 06:33:11;;;;;;;13.88;11.07;;;1.50;99.90;;;1.46;79.72;102124.13;4865564;29;20243;-70
2021/12/21 06:35:41;;;;;;;18.80;13.60;;;1.60;99.90;;;1.43;79.70;102124.38;4866034;29;20251;-73
2021/12/21 06:38:10;;;;;;;19.60;13.02;;;1.50;99.90;;;1.56;79.24;102127.81;4865391;29;20338;-70
2021/12/21 06:40:39;;;;;;;16.25;10.73;;;1.60;99.90;;;1.51;79.33;102121.97;4865875;29;20215;-74
2021/12/21 06:43:13;;;;;;;17.83;11.35;;;1.60;99.90;;;1.48;79.74;102117.72;4866148;29;20207;-74
2021/12/21 06:51:59;;;;;;;19.40;12.85;;;1.80;99.90;;;1.95;78.80;102123.97;4906371;29;20639;-70
2021/12/21 06:54:28;;;;;;;16.67;12.60;;;1.90;99.90;;;2.04;78.41;102131.28;4891561;29;20281;-71
2021/12/21 06:56:56;;;;;;;16.40;11.07;;;2.00;99.90;;;1.65;78.78;102127.13;4890685;29;20186;-73
2021/12/21 07:02:35;;;;;;;16.15;11.27;;;1.90;99.90;;;1.79;78.29;102137.66;4904412;29;20679;-75
2021/12/21 07:05:51;;;;;;;15.68;10.82;;;1.90;99.90;;;1.79;78.26;102132.31;4920189;29;20205;-73
2021/12/21 07:09:21;;;;;;;18.15;10.70;;;1.80;99.90;;;1.68;78.48;102137.59;4901843;29;20255;-73
2021/12/21 07:11:57;;;;;;;17.08;11.23;;;1.80;99.90;;;1.90;78.04;102127.00;4904923;29;20265;-73
2021/12/21 07:20:01;;;;;;;14.18;12.05;;;1.70;99.90;;;1.90;77.79;102127.00;4916435;29;20190;-73
2021/12/21 07:22:40;;;;;;;16.30;10.57;;;1.80;99.90;;;2.14;76.81;102134.94;4903249;29;20197;-74
2021/12/21 07:25:45;;;;;;;10.88;7.78;;;2.00;99.90;;;1.92;76.55;102138.41;4901143;29;20207;-71
2021/12/21 07:28:52;;;;;;;25.67;21.52;;;2.00;99.90;;;1.82;76.50;102132.06;4902320;29;20218;-73
2021/12/21 07:31:26;;;;;;;15.68;9.43;;;2.00;99.90;;;1.63;76.83;102143.28;4886688;29;20240;-74
2021/12/21 07:35:09;;;;;;;42.10;34.40;;;1.80;99.90;;;1.74;77.07;102139.81;4906704;29;20202;-74
2021/12/21 07:37:54;;;;;;;13.07;10.35;;;1.80;99.90;;;1.84;76.31;102140.78;4904516;29;20237;-72
2021/12/21 07:40:23;;;;;;;42.95;30.38;;;1.80;99.90;;;1.70;77.29;102149.00;4903595;29;20694;-73
2021/12/21 07:42:52;;;;;;;15.15;10.45;;;1.80;99.90;;;2.00;76.97;102141.34;4917062;29;20314;-71
2021/12/21 07:45:23;;;;;;;17.35;10.48;;;2.00;99.90;;;2.11;76.47;102146.72;4901521;29;20197;-73
2021/12/21 07:47:54;;;;;;;23.35;14.25;;;2.10;99.90;;;2.05;76.35;102149.84;4923691;29;20522;-72
2021/12/21 07:50:24;;;;;;;17.08;11.75;;;2.00;99.90;;;1.98;76.55;102143.31;4921084;29;20186;-73
2021/12/21 07:52:55;;;;;;;20.25;10.75;;;2.10;99.90;;;2.19;76.63;102146.13;4918814;29;20252;-71
2021/12/21 07:55:25;;;;;;;19.23;12.15;;;2.20;99.90;;;2.21;76.55;102148.69;4919216;29;20229;-72
2021/12/21 07:57:55;;;;;;;16.80;13.13;;;2.20;99.90;;;2.29;76.59;102147.13;4920250;29;20241;-73
2021/12/21 08:00:25;;;;;;;13.52;10.30;;;2.30;99.90;;;2.15;76.19;102140.19;4922198;29;20212;-72
2021/12/21 08:02:58;;;;;;;17.35;12.82;;;2.30;99.90;;;2.10;76.05;102147.69;4923318;29;20193;-74
2021/12/21 08:05:32;;;;;;;23.38;12.10;;;2.20;99.90;;;2.01;76.46;102145.72;4921558;29;20193;-74
2021/12/21 08:08:11;;;;;;;17.60;11.00;;;2.10;99.90;;;1.93;76.75;102145.47;4936446;28;20228;-73
2021/12/21 08:10:47;;;;;;;17.40;12.60;;;2.10;99.90;;;2.19;76.45;102152.31;4919529;29;20198;-72
2021/12/21 08:13:16;;;;;;;17.70;12.10;;;2.10;99.90;;;1.98;76.49;102143.31;4934412;29;20689;-73
2021/12/21 08:15:46;;;;;;;15.63;10.98;;;2.10;99.90;;;1.86;76.49;102133.53;4903193;29;20206;-72
2021/12/21 08:18:16;;;;;;;17.00;11.93;;;2.00;99.90;;;2.00;76.73;102141.34;4898949;29;20237;-72
2021/12/21 08:20:44;;;;;;;18.27;11.38;;;2.00;99.90;;;2.20;74.68;102158.53;4898468;29;20197;-73
2021/12/21 08:23:13;;;;;;;15.80;10.55;;;2.10;99.90;;;2.05;75.57;102157.88;4899609;29;20290;-73
2021/12/21 08:25:42;;;;;;;16.48;10.68;;;2.10;99.90;;;2.16;75.11;102160.59;4898601;29;20347;-74
2021/12/21 08:28:11;;;;;;;15.82;9.93;;;2.20;99.90;;;1.98;75.68;102159.31;4914973;29;20738;-71
2021/12/21 08:30:40;;;;;;;14.73;10.52;;;2.10;99.90;;;2.07;75.20;102158.63;4915056;29;20198;-74
2021/12/21 08:33:10;;;;;;;15.73;10.00;;;2.10;99.90;;;2.18;74.99;102161.28;4898822;29;20191;-73
2021/12/21 08:35:40;;;;;;;14.65;11.25;;;2.20;99.90;;;2.17;75.18;102159.63;4898564;29;20257;-74
2021/12/21 08:38:14;;;;;;;13.60;11.23;;;2.20;99.90;;;2.22;74.71;102169.09;4914212;29;20241;-73
2021/12/21 08:40:45;;;;;;;19.35;12.15;;;2.20;99.90;;;2.12;75.07;102167.13;4900165;29;20178;-73
2021/12/21 08:43:18;;;;;;;13.85;10.77;;;2.20;99.90;;;1.99;75.85;102166.34;4900296;29;20181;-72
2021/12/21 08:45:52;;;;;;;19.90;12.65;;;2.10;99.90;;;2.17;75.20;102169.44;4898404;29;20191;-72
2021/12/21 08:48:22;;;;;;;16.83;12.30;;;2.10;99.90;;;2.26;75.00;102170.56;4907170;29;20234;-73
2021/12/21 08:50:55;;;;;;;21.30;12.90;;;2.20;99.90;;;1.97;75.06;102173.63;4899644;29;20202;-73
2021/12/21 08:53:25;;;;;;;23.40;11.52;;;2.10;99.90;;;1.95;74.56;102164.00;4899615;29;20194;-72
2021/12/21 08:55:55;;;;;;;14.60;9.85;;;2.10;99.90;;;1.94;74.84;102163.16;4917621;29;20214;-71
2021/12/21 08:58:26;;;;;;;19.75;11.05;;;2.00;99.90;;;2.15;74.60;102166.88;4916763;29;20587;-73
2021/12/21 09:00:55;;;;;;;14.70;10.48;;;2.10;99.90;;;2.21;74.22;102164.72;4932699;29;20197;-74
2021/12/21 09:03:24;;;;;;;18.33;12.70;;;2.10;99.90;;;2.33;73.49;102163.75;4917637;29;20202;-73
2021/12/21 09:05:55;;;;;;;13.20;10.25;;;2.30;99.90;;;2.16;74.22;102163.25;4902002;29;20198;-71
2021/12/21 09:08:27;;;;;;;21.08;12.57;;;2.30;99.90;;;1.91;75.01;102168.75;4899278;29;20218;-73
2021/12/21 09:11:02;;;;;;;17.50;12.63;;;2.10;99.90;;;1.87;74.99;102172.63;4900351;29;20190;-72
2021/12/21 09:13:31;;;;;;;18.67;11.35;;;2.00;99.90;;;1.85;74.96;102174.53;4916113;29;20209;-73
2021/12/21 09:16:00;;;;;;;18.05;12.10;;;2.00;99.90;;;1.94;75.57;102173.84;4900293;29;20241;-73
2021/12/21 09:18:29;;;;;;;23.85;13.50;;;2.00;99.90;;;2.17;74.80;102175.66;4899152;29;20586;-73
2021/12/21 09:21:00;;;;;;;21.77;12.50;;;2.10;99.90;;;2.30;74.74;102174.69;4895506;29;20201;-72
2021/12/21 09:23:29;;;;;;;16.33;13.18;;;2.10;99.90;;;2.30;74.39;102175.56;4886034;29;20245;-71
2021/12/21 09:25:58;;;;;;;26.02;13.55;;;2.20;99.90;;;2.37;74.52;102175.94;4899057;29;20201;-73
2021/12/21 09:28:27;;;;;;;30.92;13.02;;;2.30;99.90;;;2.54;73.63;102172.81;4900553;29;20206;-72
2021/12/21 09:30:56;;;;;;;22.27;12.32;;;2.50;99.90;;;2.46;73.88;102176.09;4905533;29;20553;-73
2021/12/21 09:33:27;;;;;;;18.98;12.50;;;2.50;99.90;;;2.67;73.63;102172.69;4905732;29;20193;-70
2021/12/21 09:35:56;;;;;;;19.05;13.40;;;2.60;99.90;;;2.62;73.13;102178.38;4904686;29;20210;-73
2021/12/21 09:38:26;;;;;;;19.20;13.63;;;2.60;99.90;;;2.37;73.63;102181.28;4922234;29;20717;-73
2021/12/21 09:40:56;;;;;;;22.20;14.10;;;2.50;99.90;;;2.53;74.10;102177.28;4907021;29;20242;-73
2021/12/21 09:43:26;;;;;;;17.50;12.95;;;2.50;99.90;;;2.45;73.40;102174.38;4906272;29;20193;-73
2021/12/21 09:45:56;;;;;;;21.92;14.05;;;2.50;99.90;;;2.33;73.16;102180.66;4900494;29;20198;-73
2021/12/21 09:48:29;;;;;;;15.00;11.25;;;2.40;99.90;;;2.44;73.47;102178.00;4899989;29;20312;-74
2021/12/21 09:50:59;;;;;;;19.33;12.95;;;2.40;99.90;;;2.14;73.84;102185.69;4900646;29;20523;-74
2021/12/21 09:53:33;;;;;;;23.95;12.82;;;2.20;99.90;;;2.39;73.58;102184.66;4914553;29;20194;-73
2021/12/21 09:56:02;;;;;;;18.60;12.43;;;2.30;99.90;;;2.42;73.67;102179.09;4898928;29;20220;-73
2021/12/21 09:58:32;;;;;;;22.60;13.77;;;2.40;99.90;;;2.41;73.68;102182.75;4912707;29;20320;-71
2021/12/21 10:01:06;;;;;;;22.92;14.10;;;2.40;99.90;;;2.64;72.81;102184.47;4918771;29;20197;-72
2021/12/21 10:03:34;;;;;;;20.27;11.60;;;2.50;99.90;;;2.57;72.42;102192.09;4919297;29;20643;-72
2021/12/21 10:06:31;;;;;;;21.80;14.30;;;2.60;99.90;;;2.39;73.09;102190.00;4921978;29;20241;-75
2021/12/21 10:09:09;;;;;;;21.80;14.15;;;2.50;99.90;;;2.37;73.64;102181.28;4920654;29;20217;-72
2021/12/21 10:11:59;;;;;;;26.65;14.48;;;2.50;99.90;;;2.43;73.51;102186.13;4932342;28;20181;-73
2021/12/21 10:14:28;;;;;;;19.92;12.77;;;2.40;99.90;;;2.31;73.45;102184.41;4912813;29;20190;-74
2021/12/21 10:17:08;;;;;;;18.70;14.38;;;2.30;99.90;;;2.23;73.79;102176.97;4899732;29;20224;-74
2021/12/21 10:19:39;;;;;;;20.27;14.20;;;2.30;99.90;;;2.11;73.76;102173.44;4901119;29;20177;-73
2021/12/21 10:22:12;;;;;;;19.90;13.90;;;2.20;99.90;;;2.10;74.03;102179.75;4916516;29;20201;-74
2021/12/21 10:24:49;;;;;;;31.75;15.10;;;2.20;99.90;;;2.32;74.39;102191.47;4903196;29;20286;-72
2021/12/21 10:27:25;;;;;;;26.17;14.07;;;2.20;99.90;;;2.40;73.53;102192.56;4902959;29;20210;-71
2021/12/21 10:29:57;;;;;;;20.80;11.90;;;2.30;99.90;;;2.55;73.67;102190.53;4901478;29;20213;-72
2021/12/21 10:32:30;;;;;;;19.67;14.77;;;2.40;99.90;;;2.54;72.98;102188.84;4909697;29;20210;-74
2021/12/21 10:35:04;;;;;;;24.35;13.65;;;2.50;99.90;;;2.55;72.51;102191.41;4923482;29;20198;-73
2021/12/21 10:37:37;;;;;;;22.67;13.90;;;2.60;99.90;;;2.42;73.97;102184.44;4898711;29;20257;-71
2021/12/21 10:40:21;;;;;;;20.25;15.82;;;2.50;99.90;;;2.35;73.95;102184.06;4916090;29;20198;-73
2021/12/21 10:42:58;;;;;;;19.88;13.70;;;2.40;99.90;;;2.15;74.75;102182.91;4900769;29;20242;-74
2021/12/21 10:45:39;;;;;;;22.17;15.00;;;2.30;99.90;;;2.38;74.59;102185.63;4900748;29;20242;-74
2021/12/21 10:48:15;;;;;;;18.02;12.77;;;2.30;99.90;;;2.35;74.26;102178.72;4900936;29;20218;-74
2021/12/21 10:50:45;;;;;;;21.98;14.43;;;2.30;99.90;;;2.40;74.25;102171.19;4914089;29;20198;-71
2021/12/21 10:53:19;;;;;;;23.35;13.18;;;2.30;99.90;;;2.62;73.66;102178.38;4887816;29;20199;-75
2021/12/21 10:56:01;;;;;;;18.50;11.63;;;2.40;99.90;;;2.42;73.42;102177.25;4897710;29;20223;-74
2021/12/21 10:58:31;;;;;;;17.20;12.93;;;2.50;99.90;;;2.51;74.12;102181.06;4882945;29;20226;-73
2021/12/21 11:01:05;;;;;;;16.73;12.43;;;2.50;99.90;;;2.58;73.13;102184.94;4897155;29;20203;-74
2021/12/21 11:03:40;;;;;;;16.25;11.30;;;2.50;99.90;;;2.77;73.06;102179.88;4880238;29;20189;-73
2021/12/21 11:06:15;;;;;;;19.75;13.52;;;2.60;99.90;;;2.57;72.41;102177.91;4880360;29;20182;-74
2021/12/21 11:08:47;;;;;;;17.90;13.30;;;2.70;99.90;;;2.34;73.18;102181.50;4900517;29;20232;-75
2021/12/21 11:11:32;;;;;;;17.42;12.00;;;2.60;99.90;;;2.17;73.58;102175.66;4901633;29;20186;-73
2021/12/21 11:14:09;;;;;;;18.98;11.93;;;2.40;99.90;;;2.12;73.53;102179.63;4901363;29;20213;-75
2021/12/21 11:16:43;;;;;;;18.67;13.82;;;2.30;99.90;;;2.11;73.89;102175.25;4917218;29;20213;-74
2021/12/21 11:19:15;;;;;;;20.48;13.40;;;2.20;99.90;;;1.95;74.20;102180.03;4916141;29;20676;-75
2021/12/21 11:21:46;;;;;;;21.17;13.57;;;2.10;99.90;;;2.10;74.31;102173.53;4917115;29;20194;-75
2021/12/21 11:24:19;;;;;;;19.13;12.25;;;2.20;99.90;;;2.39;74.37;102171.31;4902815;29;20183;-74
2021/12/21 11:26:50;;;;;;;15.52;12.43;;;2.30;99.90;;;2.32;72.44;102168.28;4904097;29;20178;-75
2021/12/21 11:29:21;;;;;;;23.55;13.73;;;2.40;99.90;;;2.41;73.30;102172.06;4902400;29;20292;-75
2021/12/21 11:38:32;;;;;;;16.42;11.02;;;2.40;99.90;;;2.44;73.13;102159.31;4903259;29;20218;-74
2021/12/21 11:41:02;;;;;;;22.50;13.65;;;2.40;99.90;;;2.25;73.70;102151.00;4903197;29;20264;-75
2021/12/21 11:43:42;;;;;;;19.17;12.02;;;2.40;99.90;;;2.49;73.46;102148.25;4901662;29;20628;-73
2021/12/21 11:46:15;;;;;;;16.13;11.38;;;2.40;99.90;;;2.07;73.42;102145.25;4902577;29;20179;-74
2021/12/21 11:48:54;;;;;;;19.02;10.93;;;2.40;99.90;;;1.96;74.30;102144.38;4903167;29;20739;-73
2021/12/21 11:51:27;;;;;;;14.27;9.73;;;2.10;99.90;;;2.17;73.46;102143.59;4904522;29;20636;-72
2021/12/21 11:53:57;;;;;;;15.68;10.40;;;2.20;99.90;;;2.14;73.47;102143.81;4903095;29;20205;-73
2021/12/21 11:56:29;;;;;;;17.60;12.80;;;2.20;99.90;;;2.22;73.45;102142.38;4903842;29;20225;-73